createdAt,value
2022-11-15T00:00:50.674Z,6.77
2022-11-15T00:03:18.559Z,5.47
2022-11-15T00:05:45.346Z,5.47
2022-11-15T00:08:12.221Z,5.77
2022-11-15T00:10:39.055Z,6.17
2022-11-15T00:13:07.254Z,5.57
2022-11-15T00:15:37.270Z,5.63
2022-11-15T00:18:05.696Z,5.40
2022-11-15T00:20:34.856Z,4.87
2022-11-15T00:23:01.494Z,5.23
2022-11-15T00:25:28.560Z,5.13
2022-11-15T00:27:59.093Z,5.07
2022-11-15T00:30:26.365Z,5.47
2022-11-15T00:32:52.879Z,5.40
2022-11-15T00:35:20.238Z,5.73
2022-11-15T00:37:48.463Z,5.83
2022-11-15T00:40:15.616Z,4.50
2022-11-15T00:42:42.383Z,5.63
2022-11-15T00:45:10.097Z,5.50
2022-11-15T00:47:36.628Z,4.80
2022-11-15T00:50:03.801Z,5.17
2022-11-15T00:52:30.679Z,5.80
2022-11-15T00:54:57.262Z,6.10
2022-11-15T00:57:24.288Z,5.00
2022-11-15T00:59:50.843Z,5.10
2022-11-15T01:02:17.323Z,5.73
2022-11-15T01:04:43.866Z,5.90
2022-11-15T01:07:10.795Z,4.40
2022-11-15T01:09:37.419Z,5.50
2022-11-15T01:12:04.255Z,5.03
2022-11-15T01:14:30.922Z,6.23
2022-11-15T01:16:57.385Z,5.70
2022-11-15T01:19:24.018Z,5.13
2022-11-15T01:21:51.367Z,5.47
2022-11-15T01:24:18.090Z,5.37
2022-11-15T01:26:44.572Z,5.80
2022-11-15T01:29:11.092Z,5.30
2022-11-15T01:31:37.564Z,5.93
2022-11-15T01:34:04.050Z,6.30
2022-11-15T01:36:30.527Z,5.20
2022-11-15T01:38:58.703Z,5.30
2022-11-15T01:41:27.655Z,5.60
2022-11-15T01:43:56.676Z,5.20
2022-11-15T01:46:34.034Z,5.63
2022-11-15T01:49:09.313Z,5.70
2022-11-15T01:51:36.128Z,5.40
2022-11-15T01:54:10.185Z,6.60
2022-11-15T01:56:44.943Z,5.50
2022-11-15T01:59:11.863Z,6.70
2022-11-15T02:01:38.875Z,5.23
2022-11-15T02:04:14.896Z,5.20
2022-11-15T02:06:42.535Z,5.63
2022-11-15T02:09:09.423Z,4.77
2022-11-15T02:11:36.291Z,5.03
2022-11-15T02:14:04.640Z,5.03
2022-11-15T02:16:47.735Z,4.90
2022-11-15T02:19:17.319Z,5.53
2022-11-15T02:22:22.016Z,4.80
2022-11-15T02:25:10.078Z,4.80
2022-11-15T02:27:58.561Z,6.37
2022-11-15T02:30:39.445Z,4.37
2022-11-15T02:33:14.379Z,4.40
2022-11-15T02:35:40.791Z,3.97
2022-11-15T02:38:34.535Z,5.93
2022-11-15T02:41:13.325Z,4.00
2022-11-15T02:43:57.809Z,4.33
2022-11-15T02:47:05.334Z,5.17
2022-11-15T02:49:33.934Z,4.40
2022-11-15T02:52:00.454Z,5.60
2022-11-15T02:54:31.614Z,4.57
2022-11-15T02:57:13.901Z,5.60
2022-11-15T02:59:58.437Z,4.90
2022-11-15T03:03:03.942Z,4.60
2022-11-15T03:05:45.757Z,4.00
2022-11-15T03:08:30.543Z,3.57
2022-11-15T03:11:05.875Z,4.40
2022-11-15T03:13:39.393Z,4.53
2022-11-15T03:16:13.996Z,4.50
2022-11-15T03:18:43.252Z,5.17
2022-11-15T03:21:12.341Z,4.97
2022-11-15T03:23:41.084Z,4.47
2022-11-15T03:26:13.264Z,4.83
2022-11-15T03:28:46.961Z,4.60
2022-11-15T03:31:34.351Z,5.10
2022-11-15T03:34:03.287Z,5.60
2022-11-15T03:36:31.894Z,5.50
2022-11-15T03:39:02.767Z,5.90
2022-11-15T03:41:36.266Z,4.63
2022-11-15T03:44:13.468Z,6.10
2022-11-15T03:46:45.602Z,4.07
2022-11-15T03:49:16.453Z,5.10
2022-11-15T03:51:43.059Z,4.57
2022-11-15T03:54:09.675Z,4.67
2022-11-15T03:56:36.108Z,4.50
2022-11-15T03:59:02.724Z,4.83
2022-11-15T04:01:29.307Z,5.13
2022-11-15T04:03:55.967Z,4.60
2022-11-15T04:06:22.570Z,4.80
2022-11-15T04:08:49.128Z,5.80
2022-11-15T04:11:15.623Z,5.17
2022-11-15T04:13:42.192Z,4.30
2022-11-15T04:16:08.717Z,4.43
2022-11-15T04:18:35.140Z,4.40
2022-11-15T04:21:20.378Z,5.20
2022-11-15T04:24:07.158Z,4.97
2022-11-15T04:26:33.866Z,5.00
2022-11-15T04:29:19.270Z,4.60
2022-11-15T04:31:45.794Z,4.17
2022-11-15T04:34:12.384Z,6.00
2022-11-15T04:36:57.345Z,4.13
2022-11-15T04:39:24.074Z,5.00
2022-11-15T04:41:50.539Z,4.07
2022-11-15T04:44:17.514Z,5.47
2022-11-15T04:46:43.960Z,5.40
2022-11-15T04:49:10.534Z,6.50
2022-11-15T04:51:37.362Z,4.73
2022-11-15T04:54:03.931Z,4.33
2022-11-15T04:56:30.566Z,6.43
2022-11-15T04:58:57.165Z,4.87
2022-11-15T05:01:23.917Z,5.30
2022-11-15T05:04:22.927Z,4.57
2022-11-15T05:06:51.551Z,4.00
2022-11-15T05:09:19.635Z,4.70
2022-11-15T05:11:46.338Z,4.40
2022-11-15T05:14:12.925Z,4.00
2022-11-15T05:16:40.038Z,4.40
2022-11-15T05:19:07.332Z,5.13
2022-11-15T05:21:34.620Z,4.70
2022-11-15T05:24:02.071Z,4.93
2022-11-15T05:26:29.023Z,3.87
2022-11-15T05:28:57.169Z,4.53
2022-11-15T05:31:24.079Z,3.97
2022-11-15T05:33:54.467Z,4.07
2022-11-15T05:36:28.905Z,5.30
2022-11-15T05:38:55.533Z,6.53
2022-11-15T05:41:26.889Z,4.83
2022-11-15T05:43:54.468Z,4.87
2022-11-15T05:46:20.985Z,4.83
2022-11-15T05:48:50.325Z,4.63
2022-11-15T05:51:18.549Z,4.63
2022-11-15T05:53:45.733Z,4.00
2022-11-15T05:56:12.459Z,4.93
2022-11-15T05:58:39.060Z,4.37
2022-11-15T06:01:06.005Z,4.57
2022-11-15T06:03:32.846Z,5.77
2022-11-15T06:05:59.473Z,4.70
2022-11-15T06:08:26.024Z,4.40
2022-11-15T06:10:52.541Z,4.60
2022-11-15T06:13:19.203Z,4.83
2022-11-15T06:15:45.740Z,5.53
2022-11-15T06:18:12.274Z,4.67
2022-11-15T06:20:38.786Z,5.20
2022-11-15T06:23:05.969Z,5.50
2022-11-15T06:25:32.806Z,7.13
2022-11-15T06:27:59.759Z,4.90
2022-11-15T06:30:27.499Z,4.70
2022-11-15T06:33:02.967Z,6.60
2022-11-15T06:35:30.289Z,6.47
2022-11-15T06:37:56.809Z,5.33
2022-11-15T06:40:23.254Z,5.13
2022-11-15T06:42:49.780Z,4.77
2022-11-15T06:45:16.283Z,4.20
2022-11-15T06:47:47.689Z,4.40
2022-11-15T06:50:14.487Z,4.10
2022-11-15T06:52:41.275Z,4.43
2022-11-15T06:55:09.004Z,4.57
2022-11-15T06:57:35.979Z,4.07
2022-11-15T07:00:06.376Z,4.40
2022-11-15T07:02:33.082Z,4.90
2022-11-15T07:04:59.618Z,4.37
2022-11-15T07:07:26.232Z,4.37
2022-11-15T07:09:52.748Z,4.30
2022-11-15T07:12:19.298Z,6.00
2022-11-15T07:14:45.851Z,4.10
2022-11-15T07:17:12.323Z,4.60
2022-11-15T07:19:38.829Z,4.67
2022-11-15T07:22:05.367Z,4.40
2022-11-15T07:24:31.795Z,4.60
2022-11-15T07:26:58.317Z,4.67
2022-11-15T07:29:25.014Z,4.60
2022-11-15T07:31:51.716Z,4.93
2022-11-15T07:34:18.233Z,4.77
2022-11-15T07:36:44.785Z,4.10
2022-11-15T07:39:13.249Z,4.93
2022-11-15T07:41:39.953Z,4.63
2022-11-15T07:44:07.151Z,4.53
2022-11-15T07:46:33.663Z,4.80
2022-11-15T07:49:00.102Z,4.77
2022-11-15T07:51:26.618Z,4.73
2022-11-15T07:53:54.247Z,4.17
2022-11-15T07:56:22.009Z,4.53
2022-11-15T07:58:48.668Z,4.77
2022-11-15T08:01:15.289Z,4.23
2022-11-15T08:03:42.031Z,3.80
2022-11-15T08:06:08.581Z,4.20
2022-11-15T08:08:35.268Z,4.63
2022-11-15T08:11:02.014Z,4.97
2022-11-15T08:13:29.144Z,3.80
2022-11-15T08:16:00.500Z,3.93
2022-11-15T08:18:27.007Z,4.37
2022-11-15T08:20:53.461Z,4.90
2022-11-15T08:23:20.222Z,3.90
2022-11-15T08:25:46.794Z,3.70
2022-11-15T08:28:13.319Z,3.53
2022-11-15T08:30:43.048Z,4.17
2022-11-15T08:33:14.624Z,4.17
2022-11-15T08:35:42.373Z,4.03
2022-11-15T08:38:08.891Z,4.60
2022-11-15T08:40:36.159Z,4.00
2022-11-15T08:43:03.844Z,4.07
2022-11-15T08:45:31.268Z,3.87
2022-11-15T08:47:57.854Z,4.50
2022-11-15T08:50:24.400Z,3.97
2022-11-15T08:52:50.921Z,4.40
2022-11-15T08:55:17.848Z,3.70
2022-11-15T08:57:44.743Z,4.10
2022-11-15T09:00:12.832Z,3.90
2022-11-15T09:02:40.251Z,5.53
2022-11-15T09:05:07.594Z,5.17
2022-11-15T09:07:34.222Z,4.43
2022-11-15T09:10:01.206Z,3.83
2022-11-15T09:12:27.800Z,4.00
2022-11-15T09:14:54.426Z,4.27
2022-11-15T09:17:24.668Z,4.30
2022-11-15T09:19:52.031Z,4.37
2022-11-15T09:22:18.859Z,4.40
2022-11-15T09:24:45.395Z,4.83
2022-11-15T09:29:56.217Z,4.53
2022-11-15T09:32:24.262Z,4.40
2022-11-15T09:34:51.487Z,3.93
2022-11-15T09:37:18.021Z,4.80
2022-11-15T09:39:44.491Z,4.43
2022-11-15T09:42:32.420Z,4.33
2022-11-15T09:45:28.127Z,4.60
2022-11-15T09:48:27.067Z,4.37
2022-11-15T09:50:59.732Z,4.47
2022-11-15T09:54:24.102Z,4.37
2022-11-15T09:56:37.198Z,3.60
2022-11-15T09:59:14.729Z,3.97
2022-11-15T10:01:48.955Z,4.60
2022-11-15T10:04:15.974Z,4.40
2022-11-15T10:07:07.098Z,4.23
2022-11-15T10:09:41.343Z,3.73
2022-11-15T10:12:09.742Z,3.93
2022-11-15T10:14:36.770Z,4.93
2022-11-15T10:17:18.221Z,4.00
2022-11-15T10:20:24.258Z,4.17
2022-11-15T10:22:51.762Z,4.73
2022-11-15T10:25:37.091Z,4.53
2022-11-15T10:28:25.387Z,4.80
2022-11-15T10:30:54.765Z,4.40
2022-11-15T10:33:30.454Z,3.60
2022-11-15T10:36:16.420Z,4.10
2022-11-15T10:38:49.050Z,4.23
2022-11-15T10:41:17.525Z,4.33
2022-11-15T10:43:44.138Z,5.60
2022-11-15T10:46:45.689Z,5.40
2022-11-15T10:49:17.360Z,5.27
2022-11-15T10:51:54.608Z,4.57
2022-11-15T10:54:45.530Z,4.00
2022-11-15T10:57:15.957Z,4.83
2022-11-15T10:59:57.450Z,4.03
2022-11-15T11:02:34.575Z,4.47
2022-11-15T11:05:02.300Z,4.93
2022-11-15T11:07:31.314Z,3.63
2022-11-15T11:10:49.223Z,4.17
2022-11-15T11:13:28.582Z,4.23
2022-11-15T11:16:07.510Z,4.30
2022-11-15T11:18:58.697Z,4.90
2022-11-15T11:21:40.298Z,3.73
2022-11-15T11:24:30.037Z,4.20
2022-11-15T11:27:15.234Z,3.90
2022-11-15T11:30:11.186Z,4.17
2022-11-15T11:32:57.156Z,4.13
2022-11-15T11:35:42.126Z,5.27
2022-11-15T11:38:32.679Z,4.30
2022-11-15T11:41:17.758Z,4.47
2022-11-15T11:44:08.266Z,4.70
2022-11-15T11:46:47.053Z,4.03
2022-11-15T11:49:18.277Z,3.67
2022-11-15T11:51:53.030Z,4.87
2022-11-15T11:54:36.910Z,4.17
2022-11-15T11:57:08.556Z,4.13
2022-11-15T11:59:42.207Z,4.10
2022-11-15T12:02:15.950Z,5.20
2022-11-15T12:04:46.705Z,5.83
2022-11-15T12:07:18.399Z,5.13
2022-11-15T12:09:44.995Z,4.23
2022-11-15T12:12:20.000Z,4.10
2022-11-15T12:14:53.164Z,4.20
2022-11-15T12:17:32.937Z,4.30
2022-11-15T12:20:17.631Z,3.43
2022-11-15T12:22:48.535Z,3.57
2022-11-15T12:25:36.305Z,3.33
2022-11-15T12:28:04.560Z,3.60
2022-11-15T12:30:47.971Z,3.60
2022-11-15T12:33:38.516Z,4.20
2022-11-15T12:36:12.765Z,3.63
2022-11-15T12:39:00.923Z,4.30
2022-11-15T12:41:32.586Z,4.30
2022-11-15T12:44:02.583Z,3.90
2022-11-15T12:46:49.005Z,4.37
2022-11-15T12:49:24.603Z,3.67
2022-11-15T12:51:52.070Z,3.40
2022-11-15T12:54:24.628Z,3.87
2022-11-15T12:57:09.311Z,4.03
2022-11-15T12:59:59.966Z,4.33
2022-11-15T13:02:38.327Z,3.93
2022-11-15T13:05:19.926Z,4.07
2022-11-15T13:07:46.415Z,5.20
2022-11-15T13:10:12.841Z,3.63
2022-11-15T13:12:45.519Z,3.90
2022-11-15T13:15:15.576Z,3.40
2022-11-15T13:17:46.811Z,3.40
2022-11-15T13:20:16.366Z,3.53
2022-11-15T13:22:52.972Z,3.80
2022-11-15T13:25:39.451Z,5.00
2022-11-15T13:28:15.043Z,3.30
2022-11-15T13:30:56.224Z,4.87
2022-11-15T13:33:35.714Z,5.10
2022-11-15T13:36:23.668Z,4.20
2022-11-15T13:39:25.675Z,3.77
2022-11-15T13:41:53.069Z,4.33
2022-11-15T13:44:32.308Z,5.00
2022-11-15T13:47:14.886Z,4.30
2022-11-15T13:49:42.134Z,4.40
2022-11-15T13:52:14.862Z,3.93
2022-11-15T13:54:45.924Z,6.60
2022-11-15T13:57:22.464Z,6.40
2022-11-15T13:59:54.779Z,11.43
2022-11-15T14:02:33.479Z,57.80
2022-11-15T14:05:16.095Z,40.63
2022-11-15T14:07:54.673Z,19.17
2022-11-15T14:10:35.998Z,10.10
2022-11-15T14:13:05.193Z,19.73
2022-11-15T14:15:34.957Z,7.70
2022-11-15T14:18:02.343Z,4.30
2022-11-15T14:20:29.421Z,4.30
2022-11-15T14:23:04.342Z,3.97
2022-11-15T14:25:33.181Z,4.50
2022-11-15T14:28:11.969Z,3.97
2022-11-15T14:30:40.150Z,4.00
2022-11-15T14:33:31.776Z,4.30
2022-11-15T14:36:00.091Z,3.20
2022-11-15T14:38:26.967Z,3.80
2022-11-15T14:40:54.938Z,3.90
2022-11-15T14:43:21.709Z,2.80
2022-11-15T14:45:48.679Z,3.27
2022-11-15T14:48:15.473Z,2.60
2022-11-15T14:50:42.095Z,3.40
2022-11-15T14:53:14.745Z,4.00
2022-11-15T14:55:41.751Z,5.73
2022-11-15T14:58:09.136Z,3.40
2022-11-15T15:00:37.223Z,3.80
2022-11-15T15:03:04.943Z,4.40
2022-11-15T15:05:36.957Z,4.53
2022-11-15T15:08:04.220Z,4.63
2022-11-15T15:10:41.370Z,4.60
2022-11-15T15:13:18.917Z,4.30
2022-11-15T15:15:45.551Z,4.90
2022-11-15T15:18:12.506Z,6.10
2022-11-15T15:20:40.696Z,5.40
2022-11-15T15:23:19.921Z,7.10
2022-11-15T15:25:48.867Z,6.37
2022-11-15T15:28:15.452Z,6.40
2022-11-15T15:30:42.186Z,6.77
2022-11-15T15:33:08.765Z,6.87
2022-11-15T15:35:36.112Z,6.90
2022-11-15T15:38:03.333Z,7.07
2022-11-15T15:40:32.773Z,6.53
2022-11-15T15:42:59.858Z,5.67
2022-11-15T15:45:28.063Z,5.17
2022-11-15T15:47:54.928Z,5.00
2022-11-15T15:50:31.394Z,5.90
2022-11-15T15:53:00.581Z,5.60
2022-11-15T15:55:27.643Z,5.30
2022-11-15T15:57:54.723Z,5.90
2022-11-15T16:00:23.957Z,5.47
2022-11-15T16:02:50.619Z,5.50
2022-11-15T16:05:18.301Z,5.63
2022-11-15T16:07:45.996Z,4.00
2022-11-15T16:10:31.066Z,4.13
2022-11-15T16:12:58.320Z,5.63
2022-11-15T16:15:27.410Z,5.80
2022-11-15T16:17:55.974Z,5.63
2022-11-15T16:20:36.139Z,5.83
2022-11-15T16:23:09.579Z,5.70
2022-11-15T16:25:49.054Z,6.37
2022-11-15T16:28:26.790Z,6.50
2022-11-15T16:31:03.191Z,6.13
2022-11-15T16:33:29.985Z,6.97
2022-11-15T16:35:56.726Z,7.00
2022-11-15T16:38:23.503Z,6.23
2022-11-15T16:40:50.037Z,6.90
2022-11-15T16:43:17.076Z,6.77
2022-11-15T16:45:43.623Z,7.13
2022-11-15T16:48:21.919Z,6.50
2022-11-15T16:50:48.870Z,6.30
2022-11-15T16:53:15.460Z,7.03
2022-11-15T16:55:41.946Z,13.90
2022-11-15T16:58:09.715Z,13.00
2022-11-15T17:00:36.326Z,10.90
2022-11-15T17:03:03.989Z,10.10
2022-11-15T17:05:30.534Z,9.30
2022-11-15T17:07:57.472Z,8.80
2022-11-15T17:10:25.745Z,8.73
2022-11-15T17:12:53.045Z,8.50
2022-11-15T17:15:19.826Z,7.20
2022-11-15T17:17:52.240Z,7.40
2022-11-15T17:20:20.412Z,7.40
2022-11-15T17:22:47.412Z,6.73
2022-11-15T17:25:14.272Z,7.17
2022-11-15T17:27:41.233Z,7.97
2022-11-15T17:30:08.693Z,6.80
2022-11-15T17:32:38.302Z,8.70
2022-11-15T17:35:10.656Z,8.63
2022-11-15T17:37:41.655Z,6.70
2022-11-15T17:40:08.537Z,7.03
2022-11-15T17:42:35.125Z,9.00
2022-11-15T17:45:06.562Z,8.23
2022-11-15T17:47:36.004Z,7.67
2022-11-15T17:50:02.581Z,6.90
2022-11-15T17:52:29.045Z,7.63
2022-11-15T17:54:55.520Z,8.07
2022-11-15T17:57:21.998Z,7.73
2022-11-15T17:59:49.026Z,7.00
2022-11-15T18:02:15.756Z,8.77
2022-11-15T18:04:42.281Z,9.20
2022-11-15T18:07:11.668Z,9.70
2022-11-15T18:09:42.351Z,11.03
2022-11-15T18:12:09.847Z,12.10
2022-11-15T18:14:36.432Z,12.57
2022-11-15T18:17:03.057Z,21.97
2022-11-15T18:19:29.526Z,16.17
2022-11-15T18:21:56.302Z,14.20
2022-11-15T18:24:24.489Z,14.67
2022-11-15T18:26:51.296Z,15.10
2022-11-15T18:29:18.401Z,13.97
2022-11-15T18:31:47.809Z,17.27
2022-11-15T18:34:14.479Z,16.83
2022-11-15T18:36:41.384Z,13.97
2022-11-15T18:39:07.951Z,14.43
2022-11-15T18:41:34.684Z,14.47
2022-11-15T18:44:02.398Z,12.33
2022-11-15T18:46:31.084Z,16.53
2022-11-15T18:48:59.572Z,15.70
2022-11-15T18:51:30.412Z,14.90
2022-11-15T18:53:59.769Z,16.60
2022-11-15T18:56:27.774Z,13.53
2022-11-15T18:58:56.102Z,13.80
2022-11-15T19:01:33.910Z,13.70
2022-11-15T19:04:06.619Z,13.70
2022-11-15T19:06:33.669Z,11.87
2022-11-15T19:09:00.464Z,11.37
2022-11-15T19:11:32.589Z,12.77
2022-11-15T19:14:03.237Z,11.53
2022-11-15T19:16:31.925Z,10.50
2022-11-15T19:19:00.033Z,10.33
2022-11-15T19:21:27.471Z,11.40
2022-11-15T19:23:54.447Z,9.90
2022-11-15T19:26:23.457Z,11.03
2022-11-15T19:28:57.958Z,11.93
2022-11-15T19:31:25.729Z,10.57
2022-11-15T19:33:52.883Z,11.80
2022-11-15T19:36:26.944Z,13.20
2022-11-15T19:38:54.589Z,13.00
2022-11-15T19:41:22.607Z,11.87
2022-11-15T19:43:50.838Z,11.00
2022-11-15T19:46:20.408Z,11.27
2022-11-15T19:48:47.866Z,11.60
2022-11-15T19:51:19.286Z,13.27
2022-11-15T19:53:45.817Z,10.83
2022-11-15T19:56:14.731Z,13.07
2022-11-15T19:58:42.326Z,9.73
2022-11-15T20:01:27.725Z,10.00
2022-11-15T20:03:57.916Z,8.50
2022-11-15T20:06:35.713Z,8.90
2022-11-15T20:09:02.626Z,8.70
2022-11-15T20:11:29.218Z,8.23
2022-11-15T20:13:59.588Z,9.23
2022-11-15T20:16:26.744Z,9.30
2022-11-15T20:18:54.293Z,9.10
2022-11-15T20:21:22.048Z,11.03
2022-11-15T20:23:51.085Z,13.40
2022-11-15T20:26:21.090Z,14.43
2022-11-15T20:28:48.498Z,11.90
2022-11-15T20:31:15.698Z,12.60
2022-11-15T20:33:42.373Z,11.40
2022-11-15T20:36:13.975Z,12.13
2022-11-15T20:38:40.941Z,11.80
2022-11-15T20:41:07.922Z,13.77
2022-11-15T20:43:34.503Z,15.60
2022-11-15T20:46:04.278Z,15.73
2022-11-15T20:48:31.248Z,19.17
2022-11-15T20:51:15.146Z,18.70
2022-11-15T20:53:42.837Z,17.17
2022-11-15T20:56:17.252Z,16.80
2022-11-15T20:58:48.297Z,15.07
2022-11-15T21:01:17.028Z,13.50
2022-11-15T21:03:43.736Z,12.20
2022-11-15T21:06:11.024Z,11.83
2022-11-15T21:08:56.082Z,11.60
2022-11-15T21:11:43.508Z,14.07
2022-11-15T21:14:10.076Z,11.97
2022-11-15T21:16:37.774Z,12.47
2022-11-15T21:19:05.848Z,11.37
2022-11-15T21:21:32.546Z,11.40
2022-11-15T21:23:59.140Z,11.53
2022-11-15T21:26:26.625Z,12.53
2022-11-15T21:28:53.179Z,11.43
2022-11-15T21:31:19.833Z,10.50
2022-11-15T21:33:46.369Z,11.77
2022-11-15T21:36:12.919Z,13.70
2022-11-15T21:38:39.528Z,13.80
2022-11-15T21:41:06.396Z,13.77
2022-11-15T21:43:33.072Z,13.77
2022-11-15T21:46:01.928Z,18.10
2022-11-15T21:48:30.119Z,15.77
2022-11-15T21:50:57.208Z,12.60
2022-11-15T21:53:24.898Z,12.67
2022-11-15T21:55:51.614Z,14.17
2022-11-15T21:58:18.535Z,13.40
2022-11-15T22:01:03.724Z,13.33
2022-11-15T22:03:30.438Z,12.30
2022-11-15T22:05:57.620Z,11.27
2022-11-15T22:08:24.489Z,12.87
2022-11-15T22:10:51.261Z,12.00
2022-11-15T22:13:17.862Z,12.67
2022-11-15T22:15:45.845Z,11.63
2022-11-15T22:18:13.166Z,10.43
2022-11-15T22:20:44.855Z,9.57
2022-11-15T22:23:12.150Z,6.70
2022-11-15T22:25:38.904Z,9.57
2022-11-15T22:28:05.491Z,8.13
2022-11-15T22:30:32.183Z,9.57
2022-11-15T22:32:58.763Z,9.20
2022-11-15T22:35:25.323Z,9.20
2022-11-15T22:37:52.814Z,7.87
2022-11-15T22:40:19.533Z,8.00
2022-11-15T22:42:46.174Z,9.83
2022-11-15T22:45:12.762Z,8.43
2022-11-15T22:47:39.355Z,7.97
2022-11-15T22:50:06.630Z,6.90
2022-11-15T22:52:33.261Z,6.03
2022-11-15T22:54:59.813Z,6.77
2022-11-15T22:57:26.402Z,6.80
2022-11-15T22:59:53.303Z,6.00
2022-11-15T23:02:19.969Z,6.13
2022-11-15T23:04:46.553Z,5.63
2022-11-15T23:07:13.276Z,5.30
2022-11-15T23:09:39.960Z,4.77
2022-11-15T23:12:25.722Z,5.53
2022-11-15T23:14:52.221Z,5.10
2022-11-15T23:17:18.997Z,5.73
2022-11-15T23:19:45.504Z,4.90
2022-11-15T23:22:30.427Z,5.33
2022-11-15T23:24:58.472Z,4.67
2022-11-15T23:27:25.448Z,6.90
2022-11-15T23:30:10.470Z,4.53
2022-11-15T23:32:55.534Z,5.50
2022-11-15T23:35:22.316Z,5.20
2022-11-15T23:37:48.978Z,5.80
2022-11-15T23:40:15.553Z,5.67
2022-11-15T23:42:42.017Z,4.10
2022-11-15T23:45:08.888Z,3.93
2022-11-15T23:47:35.462Z,4.73
2022-11-15T23:50:02.004Z,4.93
2022-11-15T23:52:28.717Z,4.33
2022-11-15T23:54:55.386Z,4.30
2022-11-15T23:57:21.925Z,5.67
2022-11-15T23:59:48.427Z,4.77
